sensor_id;sensor_type;location;lat;lon;timestamp;temperature;humidity
2002;DHT22;1003;48.002;7.788;2023-03-24T00:00:32;12.50;99.90
2002;DHT22;1003;48.002;7.788;2023-03-24T00:02:59;12.40;99.90
2002;DHT22;1003;48.002;7.788;2023-03-24T00:05:27;12.30;99.90
2002;DHT22;1003;48.002;7.788;2023-03-24T00:07:56;12.30;99.90
2002;DHT22;1003;48.002;7.788;2023-03-24T00:10:26;12.20;99.90
2002;DHT22;1003;48.002;7.788;2023-03-24T00:12:55;12.20;99.90
2002;DHT22;1003;48.002;7.788;2023-03-24T00:15:24;12.10;99.90
2002;DHT22;1003;48.002;7.788;2023-03-24T00:17:51;12.10;99.90
2002;DHT22;1003;48.002;7.788;2023-03-24T00:20:21;12.00;99.90
2002;DHT22;1003;48.002;7.788;2023-03-24T00:22:50;11.90;99.90
2002;DHT22;1003;48.002;7.788;2023-03-24T00:25:23;11.80;99.90
2002;DHT22;1003;48.002;7.788;2023-03-24T00:27:53;11.70;99.90
2002;DHT22;1003;48.002;7.788;2023-03-24T00:30:22;11.70;99.90
2002;DHT22;1003;48.002;7.788;2023-03-24T00:32:50;11.50;99.90
2002;DHT22;1003;48.002;7.788;2023-03-24T00:35:18;11.40;99.90
2002;DHT22;1003;48.002;7.788;2023-03-24T00:37:46;11.30;99.90
2002;DHT22;1003;48.002;7.788;2023-03-24T00:40:17;11.30;99.90
2002;DHT22;1003;48.002;7.788;2023-03-24T00:42:48;11.30;99.90
2002;DHT22;1003;48.002;7.788;2023-03-24T00:45:18;11.30;99.90
2002;DHT22;1003;48.002;7.788;2023-03-24T00:47:47;11.30;99.90
2002;DHT22;1003;48.002;7.788;2023-03-24T00:50:19;11.30;99.90
2002;DHT22;1003;48.002;7.788;2023-03-24T00:52:51;11.30;99.90
2002;DHT22;1003;48.002;7.788;2023-03-24T00:55:19;11.30;99.90
2002;DHT22;1003;48.002;7.788;2023-03-24T00:57:48;11.30;99.90
2002;DHT22;1003;48.002;7.788;2023-03-24T01:00:17;11.40;99.90
2002;DHT22;1003;48.002;7.788;2023-03-24T01:02:49;11.50;99.90
2002;DHT22;1003;48.002;7.788;2023-03-24T01:05:19;11.60;99.90
2002;DHT22;1003;48.002;7.788;2023-03-24T01:07:47;11.60;99.90
2002;DHT22;1003;48.002;7.788;2023-03-24T01:10:17;11.50;99.90
2002;DHT22;1003;48.002;7.788;2023-03-24T01:12:53;11.50;99.90
2002;DHT22;1003;48.002;7.788;2023-03-24T01:15:23;11.50;99.90
2002;DHT22;1003;48.002;7.788;2023-03-24T01:17:52;11.50;99.90
2002;DHT22;1003;48.002;7.788;2023-03-24T01:20:20;11.50;99.90
2002;DHT22;1003;48.002;7.788;2023-03-24T01:22:49;11.50;99.90
2002;DHT22;1003;48.002;7.788;2023-03-24T01:25:20;11.60;99.90
2002;DHT22;1003;48.002;7.788;2023-03-24T01:27:50;11.60;99.90
2002;DHT22;1003;48.002;7.788;2023-03-24T01:30:21;11.60;99.90
2002;DHT22;1003;48.002;7.788;2023-03-24T01:32:51;11.60;99.90
2002;DHT22;1003;48.002;7.788;2023-03-24T01:35:20;11.60;99.90
2002;DHT22;1003;48.002;7.788;2023-03-24T01:37:48;11.60;99.90
2002;DHT22;1003;48.002;7.788;2023-03-24T01:40:18;11.60;99.90
2002;DHT22;1003;48.002;7.788;2023-03-24T01:42:46;11.70;99.90
2002;DHT22;1003;48.002;7.788;2023-03-24T01:48:37;11.60;99.90
2002;DHT22;1003;48.002;7.788;2023-03-24T01:51:11;11.50;99.90
2002;DHT22;1003;48.002;7.788;2023-03-24T01:53:44;11.50;99.90
2002;DHT22;1003;48.002;7.788;2023-03-24T01:56:15;11.50;99.90
2002;DHT22;1003;48.002;7.788;2023-03-24T01:58:47;11.50;99.90
2002;DHT22;1003;48.002;7.788;2023-03-24T02:01:19;11.50;99.90
2002;DHT22;1003;48.002;7.788;2023-03-24T02:03:50;11.50;99.90
2002;DHT22;1003;48.002;7.788;2023-03-24T02:06:18;11.50;99.90
2002;DHT22;1003;48.002;7.788;2023-03-24T02:08:51;11.50;99.90
2002;DHT22;1003;48.002;7.788;2023-03-24T02:11:22;11.60;99.90
2002;DHT22;1003;48.002;7.788;2023-03-24T02:13:51;11.60;99.90
2002;DHT22;1003;48.002;7.788;2023-03-24T02:16:33;11.70;99.90
2002;DHT22;1003;48.002;7.788;2023-03-24T02:36:47;12.40;99.90
2002;DHT22;1003;48.002;7.788;2023-03-24T02:40:11;12.80;99.90
2002;DHT22;1003;48.002;7.788;2023-03-24T02:42:58;13.00;99.90
2002;DHT22;1003;48.002;7.788;2023-03-24T02:45:35;13.10;99.90
2002;DHT22;1003;48.002;7.788;2023-03-24T02:48:24;13.20;99.90
2002;DHT22;1003;48.002;7.788;2023-03-24T02:51:05;13.40;99.90
2002;DHT22;1003;48.002;7.788;2023-03-24T02:53:42;13.90;99.90
2002;DHT22;1003;48.002;7.788;2023-03-24T02:56:23;14.10;99.90
2002;DHT22;1003;48.002;7.788;2023-03-24T02:59:00;14.30;99.90
2002;DHT22;1003;48.002;7.788;2023-03-24T03:01:31;14.50;99.90
2002;DHT22;1003;48.002;7.788;2023-03-24T03:04:06;14.80;99.90
2002;DHT22;1003;48.002;7.788;2023-03-24T03:06:37;14.80;99.90
2002;DHT22;1003;48.002;7.788;2023-03-24T03:09:09;14.90;99.90
2002;DHT22;1003;48.002;7.788;2023-03-24T03:11:44;14.90;99.90
2002;DHT22;1003;48.002;7.788;2023-03-24T03:14:17;15.00;99.90
2002;DHT22;1003;48.002;7.788;2023-03-24T03:16:51;15.00;99.90
2002;DHT22;1003;48.002;7.788;2023-03-24T03:19:28;15.00;99.90
2002;DHT22;1003;48.002;7.788;2023-03-24T03:22:01;15.10;99.90
2002;DHT22;1003;48.002;7.788;2023-03-24T03:24:34;15.20;99.90
2002;DHT22;1003;48.002;7.788;2023-03-24T03:27:10;15.20;99.90
2002;DHT22;1003;48.002;7.788;2023-03-24T03:29:44;15.30;99.90
2002;DHT22;1003;48.002;7.788;2023-03-24T03:32:21;15.20;99.90
2002;DHT22;1003;48.002;7.788;2023-03-24T03:34:55;15.30;99.90
2002;DHT22;1003;48.002;7.788;2023-03-24T03:37:32;15.20;99.90
2002;DHT22;1003;48.002;7.788;2023-03-24T03:40:07;15.20;99.90
2002;DHT22;1003;48.002;7.788;2023-03-24T03:42:39;15.00;99.90
2002;DHT22;1003;48.002;7.788;2023-03-24T03:45:07;15.00;99.90
2002;DHT22;1003;48.002;7.788;2023-03-24T03:47:37;15.00;99.90
2002;DHT22;1003;48.002;7.788;2023-03-24T03:50:06;14.90;99.90
2002;DHT22;1003;48.002;7.788;2023-03-24T03:52:37;14.90;99.90
2002;DHT22;1003;48.002;7.788;2023-03-24T03:55:09;14.90;99.90
2002;DHT22;1003;48.002;7.788;2023-03-24T03:57:39;14.80;99.90
2002;DHT22;1003;48.002;7.788;2023-03-24T04:00:10;14.90;99.90
2002;DHT22;1003;48.002;7.788;2023-03-24T04:02:50;15.10;99.90
2002;DHT22;1003;48.002;7.788;2023-03-24T04:05:35;15.30;99.90
2002;DHT22;1003;48.002;7.788;2023-03-24T04:08:19;15.40;99.90
2002;DHT22;1003;48.002;7.788;2023-03-24T04:11:19;15.50;99.90
2002;DHT22;1003;48.002;7.788;2023-03-24T04:14:06;15.50;99.90
2002;DHT22;1003;48.002;7.788;2023-03-24T04:17:03;15.40;99.90
2002;DHT22;1003;48.002;7.788;2023-03-24T04:19:50;15.30;99.90
2002;DHT22;1003;48.002;7.788;2023-03-24T04:22:38;15.00;99.90
2002;DHT22;1003;48.002;7.788;2023-03-24T04:25:27;14.80;99.90
2002;DHT22;1003;48.002;7.788;2023-03-24T04:28:04;14.60;99.90
2002;DHT22;1003;48.002;7.788;2023-03-24T04:30:42;14.50;99.90
2002;DHT22;1003;48.002;7.788;2023-03-24T04:33:19;14.30;99.90
2002;DHT22;1003;48.002;7.788;2023-03-24T04:35:58;14.20;99.90
2002;DHT22;1003;48.002;7.788;2023-03-24T04:38:31;14.30;99.90
2002;DHT22;1003;48.002;7.788;2023-03-24T04:41:04;14.20;99.90
2002;DHT22;1003;48.002;7.788;2023-03-24T04:43:33;14.20;99.90
2002;DHT22;1003;48.002;7.788;2023-03-24T04:46:04;14.00;99.90
2002;DHT22;1003;48.002;7.788;2023-03-24T04:48:33;14.00;99.90
2002;DHT22;1003;48.002;7.788;2023-03-24T04:51:02;13.80;99.90
2002;DHT22;1003;48.002;7.788;2023-03-24T04:53:30;13.70;99.90
2002;DHT22;1003;48.002;7.788;2023-03-24T04:56:29;13.60;99.90
2002;DHT22;1003;48.002;7.788;2023-03-24T04:59:00;13.70;99.90
2002;DHT22;1003;48.002;7.788;2023-03-24T05:01:29;13.70;99.90
2002;DHT22;1003;48.002;7.788;2023-03-24T05:03:56;13.70;99.90
2002;DHT22;1003;48.002;7.788;2023-03-24T05:06:24;13.70;99.90
2002;DHT22;1003;48.002;7.788;2023-03-24T05:08:52;13.60;99.90
2002;DHT22;1003;48.002;7.788;2023-03-24T05:11:19;13.50;99.90
2002;DHT22;1003;48.002;7.788;2023-03-24T05:13:46;13.50;99.90
2002;DHT22;1003;48.002;7.788;2023-03-24T05:16:14;13.60;99.90
2002;DHT22;1003;48.002;7.788;2023-03-24T05:18:42;13.60;99.90
2002;DHT22;1003;48.002;7.788;2023-03-24T05:21:09;13.50;99.90
2002;DHT22;1003;48.002;7.788;2023-03-24T05:23:38;13.60;99.90
2002;DHT22;1003;48.002;7.788;2023-03-24T05:26:05;13.50;99.90
2002;DHT22;1003;48.002;7.788;2023-03-24T05:28:35;13.50;99.90
2002;DHT22;1003;48.002;7.788;2023-03-24T05:31:02;13.40;99.90
2002;DHT22;1003;48.002;7.788;2023-03-24T05:33:29;13.40;99.90
2002;DHT22;1003;48.002;7.788;2023-03-24T05:35:57;13.50;99.90
2002;DHT22;1003;48.002;7.788;2023-03-24T05:38:24;13.40;99.90
2002;DHT22;1003;48.002;7.788;2023-03-24T05:40:55;13.30;99.90
2002;DHT22;1003;48.002;7.788;2023-03-24T05:43:23;13.30;99.90
2002;DHT22;1003;48.002;7.788;2023-03-24T05:45:50;13.30;99.90
2002;DHT22;1003;48.002;7.788;2023-03-24T05:48:17;13.30;99.90
2002;DHT22;1003;48.002;7.788;2023-03-24T05:50:44;13.40;99.90
2002;DHT22;1003;48.002;7.788;2023-03-24T05:53:13;13.40;99.90
2002;DHT22;1003;48.002;7.788;2023-03-24T05:55:40;13.30;99.90
2002;DHT22;1003;48.002;7.788;2023-03-24T05:58:07;13.30;99.90
2002;DHT22;1003;48.002;7.788;2023-03-24T06:00:34;13.30;99.90
2002;DHT22;1003;48.002;7.788;2023-03-24T06:03:01;13.30;99.90
2002;DHT22;1003;48.002;7.788;2023-03-24T06:05:28;13.30;99.90
2002;DHT22;1003;48.002;7.788;2023-03-24T06:07:55;13.20;99.90
2002;DHT22;1003;48.002;7.788;2023-03-24T06:10:27;13.20;99.90
2002;DHT22;1003;48.002;7.788;2023-03-24T06:12:55;13.10;99.90
2002;DHT22;1003;48.002;7.788;2023-03-24T06:15:23;13.10;99.90
2002;DHT22;1003;48.002;7.788;2023-03-24T06:17:52;13.00;99.90
2002;DHT22;1003;48.002;7.788;2023-03-24T06:20:21;13.00;99.90
2002;DHT22;1003;48.002;7.788;2023-03-24T06:22:48;12.90;99.90
2002;DHT22;1003;48.002;7.788;2023-03-24T06:25:16;12.90;99.90
2002;DHT22;1003;48.002;7.788;2023-03-24T06:27:47;12.80;99.90
2002;DHT22;1003;48.002;7.788;2023-03-24T06:30:16;12.70;99.90
2002;DHT22;1003;48.002;7.788;2023-03-24T06:32:44;12.80;99.90
2002;DHT22;1003;48.002;7.788;2023-03-24T06:35:12;12.80;99.90
2002;DHT22;1003;48.002;7.788;2023-03-24T06:37:39;12.80;99.90
2002;DHT22;1003;48.002;7.788;2023-03-24T06:40:08;12.90;99.90
2002;DHT22;1003;48.002;7.788;2023-03-24T06:42:39;12.80;99.90
2002;DHT22;1003;48.002;7.788;2023-03-24T06:45:08;12.60;99.90
2002;DHT22;1003;48.002;7.788;2023-03-24T06:47:35;12.60;99.90
2002;DHT22;1003;48.002;7.788;2023-03-24T06:50:03;12.50;99.90
2002;DHT22;1003;48.002;7.788;2023-03-24T06:52:31;12.50;99.90
2002;DHT22;1003;48.002;7.788;2023-03-24T06:54:58;12.50;99.90
2002;DHT22;1003;48.002;7.788;2023-03-24T06:57:25;12.50;99.90
2002;DHT22;1003;48.002;7.788;2023-03-24T06:59:53;12.50;99.90
2002;DHT22;1003;48.002;7.788;2023-03-24T07:02:21;12.60;99.90
2002;DHT22;1003;48.002;7.788;2023-03-24T07:04:49;12.60;99.90
2002;DHT22;1003;48.002;7.788;2023-03-24T07:07:18;12.50;99.90
2002;DHT22;1003;48.002;7.788;2023-03-24T07:09:47;12.50;99.90
2002;DHT22;1003;48.002;7.788;2023-03-24T07:12:14;12.50;99.90
2002;DHT22;1003;48.002;7.788;2023-03-24T07:14:41;12.50;99.90
2002;DHT22;1003;48.002;7.788;2023-03-24T07:17:08;12.50;99.90
2002;DHT22;1003;48.002;7.788;2023-03-24T07:19:37;12.50;99.90
2002;DHT22;1003;48.002;7.788;2023-03-24T07:22:04;12.40;99.90
2002;DHT22;1003;48.002;7.788;2023-03-24T07:24:33;12.40;99.90
2002;DHT22;1003;48.002;7.788;2023-03-24T07:27:00;12.40;99.90
2002;DHT22;1003;48.002;7.788;2023-03-24T07:29:28;12.50;99.90
2002;DHT22;1003;48.002;7.788;2023-03-24T07:31:55;12.40;99.90
2002;DHT22;1003;48.002;7.788;2023-03-24T07:34:25;12.40;99.90
2002;DHT22;1003;48.002;7.788;2023-03-24T07:36:54;12.50;99.90
2002;DHT22;1003;48.002;7.788;2023-03-24T07:39:22;12.60;99.90
2002;DHT22;1003;48.002;7.788;2023-03-24T07:41:49;12.60;99.90
2002;DHT22;1003;48.002;7.788;2023-03-24T07:44:16;12.60;99.90
2002;DHT22;1003;48.002;7.788;2023-03-24T07:46:43;12.70;99.90
2002;DHT22;1003;48.002;7.788;2023-03-24T07:49:11;12.80;99.90
2002;DHT22;1003;48.002;7.788;2023-03-24T07:51:39;12.80;99.90
2002;DHT22;1003;48.002;7.788;2023-03-24T07:54:07;12.80;99.90
2002;DHT22;1003;48.002;7.788;2023-03-24T07:56:34;12.80;99.90
2002;DHT22;1003;48.002;7.788;2023-03-24T07:59:01;12.90;99.90
2002;DHT22;1003;48.002;7.788;2023-03-24T08:01:29;12.90;99.90
2002;DHT22;1003;48.002;7.788;2023-03-24T08:03:56;12.90;99.90
2002;DHT22;1003;48.002;7.788;2023-03-24T08:06:23;13.00;99.90
2002;DHT22;1003;48.002;7.788;2023-03-24T08:08:50;13.00;99.90
2002;DHT22;1003;48.002;7.788;2023-03-24T08:11:18;13.00;99.90
2002;DHT22;1003;48.002;7.788;2023-03-24T08:13:46;13.00;99.90
2002;DHT22;1003;48.002;7.788;2023-03-24T08:16:13;12.90;99.90
2002;DHT22;1003;48.002;7.788;2023-03-24T08:18:40;13.00;99.90
2002;DHT22;1003;48.002;7.788;2023-03-24T08:21:07;13.00;99.90
2002;DHT22;1003;48.002;7.788;2023-03-24T08:23:34;13.20;99.90
2002;DHT22;1003;48.002;7.788;2023-03-24T08:26:01;13.30;99.90
2002;DHT22;1003;48.002;7.788;2023-03-24T08:28:30;13.30;99.90
2002;DHT22;1003;48.002;7.788;2023-03-24T08:30:57;13.40;99.90
2002;DHT22;1003;48.002;7.788;2023-03-24T08:33:24;13.50;99.90
2002;DHT22;1003;48.002;7.788;2023-03-24T08:35:51;13.60;99.90
2002;DHT22;1003;48.002;7.788;2023-03-24T08:38:22;13.70;99.90
2002;DHT22;1003;48.002;7.788;2023-03-24T08:40:55;13.80;99.90
2002;DHT22;1003;48.002;7.788;2023-03-24T08:43:27;13.80;99.90
2002;DHT22;1003;48.002;7.788;2023-03-24T08:45:56;13.90;99.90
2002;DHT22;1003;48.002;7.788;2023-03-24T08:48:24;14.00;99.90
2002;DHT22;1003;48.002;7.788;2023-03-24T08:50:52;13.90;99.90
2002;DHT22;1003;48.002;7.788;2023-03-24T08:53:20;13.80;99.90
2002;DHT22;1003;48.002;7.788;2023-03-24T08:55:47;13.90;99.90
2002;DHT22;1003;48.002;7.788;2023-03-24T08:58:16;13.80;99.90
2002;DHT22;1003;48.002;7.788;2023-03-24T09:00:45;13.80;99.90
2002;DHT22;1003;48.002;7.788;2023-03-24T09:03:16;13.90;99.90
2002;DHT22;1003;48.002;7.788;2023-03-24T09:05:46;13.90;99.90
2002;DHT22;1003;48.002;7.788;2023-03-24T09:08:17;14.00;99.90
2002;DHT22;1003;48.002;7.788;2023-03-24T09:10:45;13.90;99.90
2002;DHT22;1003;48.002;7.788;2023-03-24T09:13:13;14.00;99.90
2002;DHT22;1003;48.002;7.788;2023-03-24T09:15:45;14.00;99.90
2002;DHT22;1003;48.002;7.788;2023-03-24T09:18:15;14.10;99.90
2002;DHT22;1003;48.002;7.788;2023-03-24T09:20:44;14.10;99.90
2002;DHT22;1003;48.002;7.788;2023-03-24T09:23:11;14.20;99.90
2002;DHT22;1003;48.002;7.788;2023-03-24T09:25:38;14.20;99.90
2002;DHT22;1003;48.002;7.788;2023-03-24T09:28:06;14.20;99.90
2002;DHT22;1003;48.002;7.788;2023-03-24T09:30:34;14.30;99.90
2002;DHT22;1003;48.002;7.788;2023-03-24T09:33:02;14.30;99.90
2002;DHT22;1003;48.002;7.788;2023-03-24T09:35:30;14.30;99.90
2002;DHT22;1003;48.002;7.788;2023-03-24T09:37:57;14.30;99.90
2002;DHT22;1003;48.002;7.788;2023-03-24T09:40:26;14.40;99.90
2002;DHT22;1003;48.002;7.788;2023-03-24T09:42:59;14.30;99.90
2002;DHT22;1003;48.002;7.788;2023-03-24T09:45:31;14.40;99.90
2002;DHT22;1003;48.002;7.788;2023-03-24T09:48:06;14.50;99.90
2002;DHT22;1003;48.002;7.788;2023-03-24T09:50:45;14.70;99.90
2002;DHT22;1003;48.002;7.788;2023-03-24T09:53:26;14.80;99.90
2002;DHT22;1003;48.002;7.788;2023-03-24T09:56:03;14.80;99.90
2002;DHT22;1003;48.002;7.788;2023-03-24T09:58:38;14.90;99.90
2002;DHT22;1003;48.002;7.788;2023-03-24T10:01:11;14.90;99.90
2002;DHT22;1003;48.002;7.788;2023-03-24T10:03:40;14.60;99.90
2002;DHT22;1003;48.002;7.788;2023-03-24T10:06:13;14.50;99.90
2002;DHT22;1003;48.002;7.788;2023-03-24T10:08:45;14.50;99.90
2002;DHT22;1003;48.002;7.788;2023-03-24T10:11:21;14.20;99.90
2002;DHT22;1003;48.002;7.788;2023-03-24T10:14:03;14.10;99.90
2002;DHT22;1003;48.002;7.788;2023-03-24T10:16:44;14.10;99.90
2002;DHT22;1003;48.002;7.788;2023-03-24T10:19:25;14.10;99.90
2002;DHT22;1003;48.002;7.788;2023-03-24T10:22:10;14.00;99.90
2002;DHT22;1003;48.002;7.788;2023-03-24T10:24:48;14.00;99.90
2002;DHT22;1003;48.002;7.788;2023-03-24T10:27:26;14.10;99.90
2002;DHT22;1003;48.002;7.788;2023-03-24T10:30:02;14.10;99.90
2002;DHT22;1003;48.002;7.788;2023-03-24T10:32:38;14.10;99.90
2002;DHT22;1003;48.002;7.788;2023-03-24T10:35:14;14.20;99.90
2002;DHT22;1003;48.002;7.788;2023-03-24T10:37:46;14.10;99.90
2002;DHT22;1003;48.002;7.788;2023-03-24T10:40:17;14.10;99.90
2002;DHT22;1003;48.002;7.788;2023-03-24T10:42:47;13.90;99.90
2002;DHT22;1003;48.002;7.788;2023-03-24T10:45:23;14.00;99.90
2002;DHT22;1003;48.002;7.788;2023-03-24T10:47:56;14.00;99.90
2002;DHT22;1003;48.002;7.788;2023-03-24T10:50:27;14.00;99.90
2002;DHT22;1003;48.002;7.788;2023-03-24T10:52:57;14.10;99.90
2002;DHT22;1003;48.002;7.788;2023-03-24T10:55:29;14.20;99.90
2002;DHT22;1003;48.002;7.788;2023-03-24T10:58:01;14.20;99.90
2002;DHT22;1003;48.002;7.788;2023-03-24T11:00:30;14.20;99.90
2002;DHT22;1003;48.002;7.788;2023-03-24T11:03:00;14.10;99.90
2002;DHT22;1003;48.002;7.788;2023-03-24T11:05:32;14.20;99.90
2002;DHT22;1003;48.002;7.788;2023-03-24T11:08:22;14.00;99.90
2002;DHT22;1003;48.002;7.788;2023-03-24T11:10:53;13.90;99.90
2002;DHT22;1003;48.002;7.788;2023-03-24T11:13:27;13.90;99.90
2002;DHT22;1003;48.002;7.788;2023-03-24T11:16:05;13.90;99.90
2002;DHT22;1003;48.002;7.788;2023-03-24T11:18:36;13.90;99.90
2002;DHT22;1003;48.002;7.788;2023-03-24T11:21:05;13.90;99.90
2002;DHT22;1003;48.002;7.788;2023-03-24T11:23:37;14.10;99.90
2002;DHT22;1003;48.002;7.788;2023-03-24T11:26:11;14.20;99.90
2002;DHT22;1003;48.002;7.788;2023-03-24T11:28:42;14.40;99.90
2002;DHT22;1003;48.002;7.788;2023-03-24T11:31:19;14.50;99.90
2002;DHT22;1003;48.002;7.788;2023-03-24T11:33:54;14.30;99.90
2002;DHT22;1003;48.002;7.788;2023-03-24T11:36:38;14.30;99.90
2002;DHT22;1003;48.002;7.788;2023-03-24T11:39:13;14.10;99.90
2002;DHT22;1003;48.002;7.788;2023-03-24T11:41:51;14.30;99.90
2002;DHT22;1003;48.002;7.788;2023-03-24T11:44:32;14.60;99.90
2002;DHT22;1003;48.002;7.788;2023-03-24T11:47:12;14.60;99.90
2002;DHT22;1003;48.002;7.788;2023-03-24T11:49:45;14.50;99.90
2002;DHT22;1003;48.002;7.788;2023-03-24T11:52:21;14.50;99.90
2002;DHT22;1003;48.002;7.788;2023-03-24T11:54:52;14.30;99.90
2002;DHT22;1003;48.002;7.788;2023-03-24T11:57:30;14.30;99.90
2002;DHT22;1003;48.002;7.788;2023-03-24T12:00:16;14.20;99.90
2002;DHT22;1003;48.002;7.788;2023-03-24T12:02:58;14.50;99.90
2002;DHT22;1003;48.002;7.788;2023-03-24T12:05:38;14.60;99.90
2002;DHT22;1003;48.002;7.788;2023-03-24T12:08:21;14.60;99.90
2002;DHT22;1003;48.002;7.788;2023-03-24T12:11:10;14.70;99.90
2002;DHT22;1003;48.002;7.788;2023-03-24T12:13:42;14.50;99.90
2002;DHT22;1003;48.002;7.788;2023-03-24T12:16:24;14.30;99.90
2002;DHT22;1003;48.002;7.788;2023-03-24T12:19:22;14.50;99.90
2002;DHT22;1003;48.002;7.788;2023-03-24T12:22:09;14.50;99.90
2002;DHT22;1003;48.002;7.788;2023-03-24T12:24:59;14.30;99.90
2002;DHT22;1003;48.002;7.788;2023-03-24T12:27:51;14.20;99.90
2002;DHT22;1003;48.002;7.788;2023-03-24T12:30:37;14.30;99.90
2002;DHT22;1003;48.002;7.788;2023-03-24T12:33:22;14.30;99.90
2002;DHT22;1003;48.002;7.788;2023-03-24T12:36:17;14.20;99.90
2002;DHT22;1003;48.002;7.788;2023-03-24T12:39:02;14.20;99.90
2002;DHT22;1003;48.002;7.788;2023-03-24T12:41:48;14.20;99.90
2002;DHT22;1003;48.002;7.788;2023-03-24T12:47:54;14.10;99.90
2002;DHT22;1003;48.002;7.788;2023-03-24T12:50:49;14.10;99.90
2002;DHT22;1003;48.002;7.788;2023-03-24T12:53:50;14.00;99.90
2002;DHT22;1003;48.002;7.788;2023-03-24T12:56:30;13.90;99.90
2002;DHT22;1003;48.002;7.788;2023-03-24T12:59:02;13.80;99.90
2002;DHT22;1003;48.002;7.788;2023-03-24T13:01:40;13.80;99.90
2002;DHT22;1003;48.002;7.788;2023-03-24T13:04:12;13.90;99.90
2002;DHT22;1003;48.002;7.788;2023-03-24T13:06:48;13.80;99.90
2002;DHT22;1003;48.002;7.788;2023-03-24T13:09:24;13.90;99.90
2002;DHT22;1003;48.002;7.788;2023-03-24T13:12:04;13.80;99.90
2002;DHT22;1003;48.002;7.788;2023-03-24T13:14:48;13.90;99.90
2002;DHT22;1003;48.002;7.788;2023-03-24T13:17:21;13.90;99.90
2002;DHT22;1003;48.002;7.788;2023-03-24T13:19:56;13.90;99.90
2002;DHT22;1003;48.002;7.788;2023-03-24T13:22:26;14.00;99.90
2002;DHT22;1003;48.002;7.788;2023-03-24T13:24:56;14.00;99.90
2002;DHT22;1003;48.002;7.788;2023-03-24T13:27:24;14.10;99.90
2002;DHT22;1003;48.002;7.788;2023-03-24T13:30:18;14.00;99.90
2002;DHT22;1003;48.002;7.788;2023-03-24T13:32:59;14.00;99.90
2002;DHT22;1003;48.002;7.788;2023-03-24T13:35:53;13.90;99.90
2002;DHT22;1003;48.002;7.788;2023-03-24T13:38:37;14.00;99.90
2002;DHT22;1003;48.002;7.788;2023-03-24T13:41:11;13.90;99.90
2002;DHT22;1003;48.002;7.788;2023-03-24T13:43:46;13.70;99.90
2002;DHT22;1003;48.002;7.788;2023-03-24T13:46:15;13.70;99.90
2002;DHT22;1003;48.002;7.788;2023-03-24T13:48:49;13.70;99.90
2002;DHT22;1003;48.002;7.788;2023-03-24T13:51:23;13.60;99.90
2002;DHT22;1003;48.002;7.788;2023-03-24T13:53:54;13.50;99.90
2002;DHT22;1003;48.002;7.788;2023-03-24T13:56:27;13.30;99.90
2002;DHT22;1003;48.002;7.788;2023-03-24T13:59:17;13.30;99.90
2002;DHT22;1003;48.002;7.788;2023-03-24T14:08:17;13.10;99.90
2002;DHT22;1003;48.002;7.788;2023-03-24T14:10:46;12.80;99.90
2002;DHT22;1003;48.002;7.788;2023-03-24T14:13:45;12.80;99.90
2002;DHT22;1003;48.002;7.788;2023-03-24T14:16:43;12.60;99.90
2002;DHT22;1003;48.002;7.788;2023-03-24T14:19:26;12.60;99.90
2002;DHT22;1003;48.002;7.788;2023-03-24T14:22:03;12.60;99.90
2002;DHT22;1003;48.002;7.788;2023-03-24T14:24:39;12.60;99.90
2002;DHT22;1003;48.002;7.788;2023-03-24T14:27:32;12.70;99.90
2002;DHT22;1003;48.002;7.788;2023-03-24T14:30:03;12.80;99.90
2002;DHT22;1003;48.002;7.788;2023-03-24T14:32:43;12.80;99.90
2002;DHT22;1003;48.002;7.788;2023-03-24T14:35:24;13.00;99.90
2002;DHT22;1003;48.002;7.788;2023-03-24T14:37:58;13.00;99.90
2002;DHT22;1003;48.002;7.788;2023-03-24T14:40:33;13.00;99.90
2002;DHT22;1003;48.002;7.788;2023-03-24T14:45:58;13.10;99.90
2002;DHT22;1003;48.002;7.788;2023-03-24T14:48:36;13.10;99.90
2002;DHT22;1003;48.002;7.788;2023-03-24T14:51:30;13.20;99.90
2002;DHT22;1003;48.002;7.788;2023-03-24T14:54:04;13.30;99.90
2002;DHT22;1003;48.002;7.788;2023-03-24T14:56:39;13.30;99.90
2002;DHT22;1003;48.002;7.788;2023-03-24T14:59:14;13.50;99.90
2002;DHT22;1003;48.002;7.788;2023-03-24T15:01:46;13.60;99.90
2002;DHT22;1003;48.002;7.788;2023-03-24T15:04:16;13.80;99.90
2002;DHT22;1003;48.002;7.788;2023-03-24T15:06:44;13.90;99.90
2002;DHT22;1003;48.002;7.788;2023-03-24T15:09:14;14.00;99.90
2002;DHT22;1003;48.002;7.788;2023-03-24T15:11:45;14.00;99.90
2002;DHT22;1003;48.002;7.788;2023-03-24T15:14:23;14.30;99.90
2002;DHT22;1003;48.002;7.788;2023-03-24T15:16:57;14.50;99.90
2002;DHT22;1003;48.002;7.788;2023-03-24T15:19:30;14.40;99.90
2002;DHT22;1003;48.002;7.788;2023-03-24T15:22:00;14.40;99.90
2002;DHT22;1003;48.002;7.788;2023-03-24T15:24:31;14.50;99.90
2002;DHT22;1003;48.002;7.788;2023-03-24T15:27:22;14.40;99.90
2002;DHT22;1003;48.002;7.788;2023-03-24T15:29:57;14.60;99.90
2002;DHT22;1003;48.002;7.788;2023-03-24T15:32:26;14.60;99.90
2002;DHT22;1003;48.002;7.788;2023-03-24T15:34:57;14.80;99.90
2002;DHT22;1003;48.002;7.788;2023-03-24T15:37:31;14.80;99.90
2002;DHT22;1003;48.002;7.788;2023-03-24T15:40:00;14.90;99.90
2002;DHT22;1003;48.002;7.788;2023-03-24T15:42:31;14.90;99.90
2002;DHT22;1003;48.002;7.788;2023-03-24T15:45:09;14.90;99.90
2002;DHT22;1003;48.002;7.788;2023-03-24T15:47:45;14.70;99.90
2002;DHT22;1003;48.002;7.788;2023-03-24T15:50:28;14.50;99.90
2002;DHT22;1003;48.002;7.788;2023-03-24T15:52:59;14.40;99.90
2002;DHT22;1003;48.002;7.788;2023-03-24T15:55:32;14.20;99.90
2002;DHT22;1003;48.002;7.788;2023-03-24T15:58:19;14.10;99.90
2002;DHT22;1003;48.002;7.788;2023-03-24T16:00:49;14.00;99.90
2002;DHT22;1003;48.002;7.788;2023-03-24T16:03:21;13.80;99.90
2002;DHT22;1003;48.002;7.788;2023-03-24T16:05:51;13.70;99.90
2002;DHT22;1003;48.002;7.788;2023-03-24T16:08:25;13.70;99.90
2002;DHT22;1003;48.002;7.788;2023-03-24T16:10:59;13.60;99.90
2002;DHT22;1003;48.002;7.788;2023-03-24T16:13:30;13.70;99.90
2002;DHT22;1003;48.002;7.788;2023-03-24T16:15:58;13.50;99.90
2002;DHT22;1003;48.002;7.788;2023-03-24T16:18:30;13.60;99.90
2002;DHT22;1003;48.002;7.788;2023-03-24T16:20:59;13.60;99.90
2002;DHT22;1003;48.002;7.788;2023-03-24T16:23:27;13.60;99.90
2002;DHT22;1003;48.002;7.788;2023-03-24T16:25:54;13.60;99.90
2002;DHT22;1003;48.002;7.788;2023-03-24T16:28:22;13.70;99.90
2002;DHT22;1003;48.002;7.788;2023-03-24T16:30:55;13.80;99.90
2002;DHT22;1003;48.002;7.788;2023-03-24T16:33:26;13.80;99.90
2002;DHT22;1003;48.002;7.788;2023-03-24T16:35:55;14.00;99.90
2002;DHT22;1003;48.002;7.788;2023-03-24T16:38:22;13.90;99.90
2002;DHT22;1003;48.002;7.788;2023-03-24T16:40:51;13.90;99.90
2002;DHT22;1003;48.002;7.788;2023-03-24T16:43:19;13.90;99.90
2002;DHT22;1003;48.002;7.788;2023-03-24T16:45:48;13.90;99.90
2002;DHT22;1003;48.002;7.788;2023-03-24T16:48:17;13.80;99.90
2002;DHT22;1003;48.002;7.788;2023-03-24T16:50:45;13.80;99.90
2002;DHT22;1003;48.002;7.788;2023-03-24T16:53:16;13.70;99.90
2002;DHT22;1003;48.002;7.788;2023-03-24T16:55:43;13.60;99.90
2002;DHT22;1003;48.002;7.788;2023-03-24T16:58:12;13.50;99.90
2002;DHT22;1003;48.002;7.788;2023-03-24T17:00:41;13.50;99.90
2002;DHT22;1003;48.002;7.788;2023-03-24T17:03:10;13.50;99.90
2002;DHT22;1003;48.002;7.788;2023-03-24T17:05:42;13.30;99.90
2002;DHT22;1003;48.002;7.788;2023-03-24T17:08:11;13.10;99.90
2002;DHT22;1003;48.002;7.788;2023-03-24T17:10:38;13.00;99.90
2002;DHT22;1003;48.002;7.788;2023-03-24T17:13:09;12.90;99.90